Time;durP1;ratioP1;P1;durP2;ratioP2;P2;SDS_P1;SDS_P2;PMS_P1;PMS_P2;Temp;Humidity;BMP_temperature;BMP_pressure;BME280_temperature;BME280_humidity;BME280_pressure;Samples;Min_cycle;Max_cycle;Signal;HPM_P1;HPM_P2
2023/06/17 00:00:12;;;;;;;13.68;8.73;;;;;;;;;;5023092;28;20563;-59
2023/06/17 00:02:37;;;;;;;14.63;8.65;;;;;;;;;;5020179;28;21829;-58
2023/06/17 00:05:03;;;;;;;12.23;8.63;;;;;;;;;;5023624;28;20022;-59
2023/06/17 00:07:28;;;;;;;17.30;8.98;;;;;;;;;;5023135;28;20033;-57
2023/06/17 00:09:54;;;;;;;12.00;8.45;;;;;;;;;;5021566;28;20036;-58
2023/06/17 00:12:21;;;;;;;26.55;9.55;;;;;;;;;;5020828;28;20037;-56
2023/06/17 00:14:46;;;;;;;11.35;8.52;;;;;;;;;;5020247;28;20031;-56
2023/06/17 00:17:12;;;;;;;13.57;8.23;;;;;;;;;;5020716;28;20033;-58
2023/06/17 00:19:38;;;;;;;13.60;8.18;;;;;;;;;;5020747;28;20060;-58
2023/06/17 00:22:04;;;;;;;19.70;9.23;;;;;;;;;;5021098;28;20068;-59
2023/06/17 00:24:29;;;;;;;13.02;8.75;;;;;;;;;;5053201;28;20488;-58
2023/06/17 00:26:54;;;;;;;12.85;8.23;;;;;;;;;;5022726;28;20488;-59
2023/06/17 00:29:20;;;;;;;12.97;8.60;;;;;;;;;;5020121;28;20108;-59
2023/06/17 00:31:45;;;;;;;12.15;8.95;;;;;;;;;;5021062;28;20763;-55
2023/06/17 00:34:11;;;;;;;15.40;8.90;;;;;;;;;;5020443;28;20029;-59
2023/06/17 00:36:36;;;;;;;12.37;8.90;;;;;;;;;;5021273;28;20501;-58
2023/06/17 00:39:01;;;;;;;15.27;9.20;;;;;;;;;;5042129;28;20258;-57
2023/06/17 00:41:26;;;;;;;17.75;9.30;;;;;;;;;;5020608;28;20266;-57
2023/06/17 00:43:52;;;;;;;11.90;8.80;;;;;;;;;;5020441;28;20033;-58
2023/06/17 00:46:30;;;;;;;11.20;8.90;;;;;;;;;;5020190;28;20160;-58
2023/06/17 00:48:55;;;;;;;10.55;8.25;;;;;;;;;;5020147;28;20095;-58
2023/06/17 00:51:20;;;;;;;12.93;9.52;;;;;;;;;;5023430;28;20272;-56
2023/06/17 00:53:46;;;;;;;15.27;8.88;;;;;;;;;;5020388;28;20052;-56
2023/06/17 00:56:11;;;;;;;11.95;9.68;;;;;;;;;;5020768;28;20032;-56
2023/06/17 00:58:37;;;;;;;16.02;8.55;;;;;;;;;;5019728;28;21417;-59
2023/06/17 01:01:03;;;;;;;13.02;8.52;;;;;;;;;;5020847;28;20104;-58
2023/06/17 01:03:29;;;;;;;12.55;8.38;;;;;;;;;;5020325;28;20106;-58
2023/06/17 01:05:59;;;;;;;13.02;9.38;;;;;;;;;;5025759;28;20040;-58
2023/06/17 01:08:34;;;;;;;11.10;7.63;;;;;;;;;;5019212;28;20017;-53
2023/06/17 01:11:04;;;;;;;12.48;8.60;;;;;;;;;;5019632;28;20143;-56
2023/06/17 01:13:30;;;;;;;13.23;9.13;;;;;;;;;;5019495;28;20540;-58
2023/06/17 01:15:56;;;;;;;12.02;8.10;;;;;;;;;;5050354;28;20051;-58
2023/06/17 01:18:21;;;;;;;13.27;9.73;;;;;;;;;;5019163;28;20029;-59
2023/06/17 01:20:53;;;;;;;11.57;7.93;;;;;;;;;;5019533;28;20497;-60
2023/06/17 01:23:21;;;;;;;15.27;10.63;;;;;;;;;;5019874;28;20036;-56
2023/06/17 01:25:46;;;;;;;18.05;9.68;;;;;;;;;;5028373;28;20033;-54
2023/06/17 01:28:20;;;;;;;12.02;9.25;;;;;;;;;;5023788;28;20027;-57
2023/06/17 01:30:47;;;;;;;13.35;9.77;;;;;;;;;;5025114;28;20016;-53
2023/06/17 01:33:14;;;;;;;18.55;10.60;;;;;;;;;;5023670;28;20128;-59
2023/06/17 01:35:43;;;;;;;14.63;9.73;;;;;;;;;;5024445;28;20041;-58
2023/06/17 01:38:17;;;;;;;12.40;8.82;;;;;;;;;;5029283;28;20373;-58
2023/06/17 01:40:44;;;;;;;14.23;9.40;;;;;;;;;;5024097;28;20102;-59
2023/06/17 01:43:11;;;;;;;14.13;9.50;;;;;;;;;;5023681;28;20428;-59
2023/06/17 01:45:37;;;;;;;13.25;9.10;;;;;;;;;;5023320;28;20086;-53
2023/06/17 01:48:02;;;;;;;14.48;9.32;;;;;;;;;;5025961;28;20124;-58
2023/06/17 01:50:27;;;;;;;14.80;9.27;;;;;;;;;;5025313;28;20081;-56
2023/06/17 01:52:53;;;;;;;14.80;9.80;;;;;;;;;;5023048;28;20491;-58
2023/06/17 01:55:18;;;;;;;12.75;9.18;;;;;;;;;;5023849;28;20071;-54
2023/06/17 01:57:43;;;;;;;12.95;8.73;;;;;;;;;;5023619;28;20095;-57
2023/06/17 02:00:11;;;;;;;12.63;8.95;;;;;;;;;;5026231;28;20091;-58
2023/06/17 02:02:37;;;;;;;14.18;9.32;;;;;;;;;;5037724;28;20045;-60
2023/06/17 02:05:02;;;;;;;11.80;9.65;;;;;;;;;;5025742;28;20523;-55
2023/06/17 02:07:28;;;;;;;16.35;9.15;;;;;;;;;;5027056;28;20032;-58
2023/06/17 02:09:53;;;;;;;12.40;9.52;;;;;;;;;;5024207;28;20502;-55
2023/06/17 02:12:18;;;;;;;11.10;8.18;;;;;;;;;;5023257;28;20044;-56
2023/06/17 02:14:44;;;;;;;12.45;8.77;;;;;;;;;;5024694;28;20602;-60
2023/06/17 02:17:11;;;;;;;12.60;9.07;;;;;;;;;;5023036;28;20029;-55
2023/06/17 02:19:37;;;;;;;18.27;9.90;;;;;;;;;;5022934;28;20044;-59
2023/06/17 02:22:03;;;;;;;14.55;9.45;;;;;;;;;;5023368;28;20036;-56
2023/06/17 02:24:28;;;;;;;19.85;10.23;;;;;;;;;;5025021;28;20030;-54
2023/06/17 02:26:54;;;;;;;13.75;10.02;;;;;;;;;;5022696;28;20029;-59
2023/06/17 02:29:19;;;;;;;13.57;9.93;;;;;;;;;;5022883;28;20036;-57
2023/06/17 02:31:44;;;;;;;17.00;10.38;;;;;;;;;;5023097;28;20021;-57
2023/06/17 02:34:10;;;;;;;16.17;9.80;;;;;;;;;;5022828;28;20056;-58
2023/06/17 02:36:38;;;;;;;14.35;9.05;;;;;;;;;;5028021;28;20032;-53
2023/06/17 02:39:04;;;;;;;14.93;9.00;;;;;;;;;;5022418;28;20021;-57
2023/06/17 02:41:29;;;;;;;14.27;9.43;;;;;;;;;;5022407;28;21869;-59
2023/06/17 02:43:54;;;;;;;14.80;9.70;;;;;;;;;;5022273;28;20037;-58
2023/06/17 02:46:20;;;;;;;15.85;9.60;;;;;;;;;;5025348;28;20029;-58
2023/06/17 02:48:45;;;;;;;15.85;9.52;;;;;;;;;;5022514;28;20040;-56
2023/06/17 02:51:11;;;;;;;17.33;9.52;;;;;;;;;;5023546;28;20044;-59
2023/06/17 02:53:36;;;;;;;14.57;8.75;;;;;;;;;;5022269;28;20048;-59
2023/06/17 02:56:01;;;;;;;14.25;9.18;;;;;;;;;;5022901;28;20021;-50
2023/06/17 02:58:27;;;;;;;15.25;8.70;;;;;;;;;;5024075;28;20780;-58
2023/06/17 03:00:54;;;;;;;14.48;9.55;;;;;;;;;;5026027;28;20100;-58
2023/06/17 03:03:33;;;;;;;13.35;9.10;;;;;;;;;;5026135;28;20041;-58
2023/06/17 03:06:01;;;;;;;14.20;9.68;;;;;;;;;;5029683;28;20032;-55
2023/06/17 03:08:28;;;;;;;17.17;9.87;;;;;;;;;;5025088;28;20053;-57
2023/06/17 03:10:53;;;;;;;16.77;9.63;;;;;;;;;;5025773;28;20026;-57
2023/06/17 03:13:19;;;;;;;15.25;10.45;;;;;;;;;;5025015;28;20417;-52
2023/06/17 03:15:44;;;;;;;13.32;9.60;;;;;;;;;;5025001;28;20052;-59
2023/06/17 03:18:09;;;;;;;19.67;10.32;;;;;;;;;;5023850;28;20484;-56
2023/06/17 03:20:35;;;;;;;17.58;10.23;;;;;;;;;;5024689;28;20127;-58
2023/06/17 03:23:02;;;;;;;16.10;11.02;;;;;;;;;;5042193;28;20044;-56
2023/06/17 03:25:27;;;;;;;15.20;10.82;;;;;;;;;;5027917;28;20024;-55
2023/06/17 03:27:53;;;;;;;16.87;10.47;;;;;;;;;;5022296;28;20032;-59
2023/06/17 03:30:18;;;;;;;15.90;9.95;;;;;;;;;;5021798;28;20262;-59
2023/06/17 03:32:44;;;;;;;13.68;9.60;;;;;;;;;;5021624;28;20037;-56
2023/06/17 03:35:09;;;;;;;14.85;9.68;;;;;;;;;;5029494;28;20124;-55
2023/06/17 03:37:35;;;;;;;15.20;8.93;;;;;;;;;;5023676;28;20037;-58
2023/06/17 03:40:00;;;;;;;16.05;9.70;;;;;;;;;;5022492;28;20647;-55
2023/06/17 03:42:25;;;;;;;15.20;9.75;;;;;;;;;;5029822;28;20043;-54
2023/06/17 03:44:51;;;;;;;14.35;9.80;;;;;;;;;;5028598;28;20021;-59
2023/06/17 03:47:16;;;;;;;14.73;10.02;;;;;;;;;;5030118;28;20040;-57
2023/06/17 03:49:44;;;;;;;18.02;10.57;;;;;;;;;;5021826;28;20421;-55
2023/06/17 03:52:09;;;;;;;16.50;8.85;;;;;;;;;;5022709;28;20056;-57
2023/06/17 03:54:34;;;;;;;19.40;10.38;;;;;;;;;;5022077;28;20036;-54
2023/06/17 03:56:59;;;;;;;15.38;9.82;;;;;;;;;;5025948;28;20079;-57
2023/06/17 03:59:25;;;;;;;16.75;10.52;;;;;;;;;;5021910;28;20107;-55
2023/06/17 04:01:50;;;;;;;16.30;10.43;;;;;;;;;;5022182;28;20025;-57
2023/06/17 04:04:15;;;;;;;12.35;8.80;;;;;;;;;;5022826;28;20076;-58
2023/06/17 04:06:41;;;;;;;19.48;10.98;;;;;;;;;;5021689;28;20146;-58
2023/06/17 04:09:06;;;;;;;15.85;9.98;;;;;;;;;;5039014;28;20116;-57
2023/06/17 04:11:32;;;;;;;15.80;10.25;;;;;;;;;;5020290;28;20260;-59
2023/06/17 04:13:58;;;;;;;16.25;10.65;;;;;;;;;;5020468;28;20029;-59
2023/06/17 04:16:23;;;;;;;14.50;10.07;;;;;;;;;;5021814;28;20037;-58
2023/06/17 04:18:49;;;;;;;12.20;9.95;;;;;;;;;;5020239;28;20085;-56
2023/06/17 04:21:14;;;;;;;16.98;11.15;;;;;;;;;;5022518;28;20858;-57
2023/06/17 04:23:40;;;;;;;19.08;10.52;;;;;;;;;;5020768;28;20034;-52
2023/06/17 04:26:06;;;;;;;15.68;10.15;;;;;;;;;;5021315;28;20025;-57
2023/06/17 04:28:32;;;;;;;13.15;9.25;;;;;;;;;;5020495;28;20037;-54
2023/06/17 04:31:00;;;;;;;13.70;9.30;;;;;;;;;;5020818;28;20699;-56
2023/06/17 04:33:26;;;;;;;12.82;9.38;;;;;;;;;;5020558;28;20035;-56
2023/06/17 04:35:51;;;;;;;16.83;10.15;;;;;;;;;;5021093;28;20029;-57
2023/06/17 04:38:17;;;;;;;16.40;9.88;;;;;;;;;;5026696;28;20118;-57
2023/06/17 04:40:42;;;;;;;16.35;10.43;;;;;;;;;;5022091;28;20025;-55
2023/06/17 04:43:08;;;;;;;13.90;9.43;;;;;;;;;;5020064;28;20441;-55
2023/06/17 04:45:35;;;;;;;15.90;9.93;;;;;;;;;;5022682;28;20037;-55
2023/06/17 04:48:03;;;;;;;18.02;9.38;;;;;;;;;;5020876;28;20124;-56
2023/06/17 04:50:29;;;;;;;15.20;9.75;;;;;;;;;;5026211;28;20048;-58
2023/06/17 04:52:54;;;;;;;15.00;8.90;;;;;;;;;;5021168;28;20036;-57
2023/06/17 04:55:21;;;;;;;16.88;9.70;;;;;;;;;;5020224;28;20417;-57
2023/06/17 04:57:47;;;;;;;10.45;7.60;;;;;;;;;;5020272;28;20063;-60
2023/06/17 05:00:13;;;;;;;10.65;7.30;;;;;;;;;;5020487;28;20033;-57
2023/06/17 05:02:39;;;;;;;13.57;8.35;;;;;;;;;;5020168;28;20116;-57
2023/06/17 05:05:05;;;;;;;10.82;8.00;;;;;;;;;;5020948;28;20055;-54
2023/06/17 05:07:30;;;;;;;13.55;8.18;;;;;;;;;;5019535;28;20037;-56
2023/06/17 05:09:55;;;;;;;11.93;8.63;;;;;;;;;;5020859;28;20291;-58
2023/06/17 05:12:21;;;;;;;16.83;8.32;;;;;;;;;;5021539;28;20289;-59
2023/06/17 05:14:46;;;;;;;15.00;8.77;;;;;;;;;;5021444;28;20435;-59
2023/06/17 05:17:11;;;;;;;17.23;9.30;;;;;;;;;;5019279;28;20094;-56
2023/06/17 05:19:36;;;;;;;12.07;7.67;;;;;;;;;;5021061;28;20274;-59
2023/06/17 05:22:02;;;;;;;12.65;7.40;;;;;;;;;;5020027;28;20276;-58
2023/06/17 05:24:27;;;;;;;8.97;6.40;;;;;;;;;;5019359;28;20021;-60
2023/06/17 05:26:52;;;;;;;13.02;7.93;;;;;;;;;;5020028;28;20364;-55
2023/06/17 05:29:18;;;;;;;8.80;6.97;;;;;;;;;;5019925;28;20112;-57
2023/06/17 05:31:43;;;;;;;15.00;9.25;;;;;;;;;;5021584;28;20112;-54
2023/06/17 05:34:09;;;;;;;12.15;7.55;;;;;;;;;;5020101;28;20044;-59
2023/06/17 05:36:34;;;;;;;11.25;7.47;;;;;;;;;;5020346;28;20029;-58
2023/06/17 05:38:59;;;;;;;13.38;6.50;;;;;;;;;;5019474;28;20078;-58
2023/06/17 05:41:25;;;;;;;12.25;6.95;;;;;;;;;;5025653;28;20025;-59
2023/06/17 05:43:50;;;;;;;10.02;6.85;;;;;;;;;;5020040;28;20025;-56
2023/06/17 05:46:16;;;;;;;10.85;6.68;;;;;;;;;;5026360;28;20076;-59
2023/06/17 05:48:41;;;;;;;8.00;6.67;;;;;;;;;;5019739;28;20029;-59
2023/06/17 05:51:06;;;;;;;8.17;6.70;;;;;;;;;;5028424;28;20294;-56
2023/06/17 05:53:31;;;;;;;10.97;6.73;;;;;;;;;;5019939;28;20305;-56
2023/06/17 05:55:57;;;;;;;8.90;7.40;;;;;;;;;;5019859;28;20321;-54
2023/06/17 05:58:22;;;;;;;12.60;6.77;;;;;;;;;;5021988;28;20270;-59
2023/06/17 06:00:47;;;;;;;14.82;6.45;;;;;;;;;;5020418;28;20347;-54
2023/06/17 06:03:13;;;;;;;8.70;6.53;;;;;;;;;;5019213;28;20316;-60
2023/06/17 06:05:38;;;;;;;13.15;7.22;;;;;;;;;;5020248;28;20017;-58
2023/06/17 06:08:03;;;;;;;9.73;7.53;;;;;;;;;;5019764;28;20025;-58
2023/06/17 06:10:28;;;;;;;10.95;7.13;;;;;;;;;;5020103;28;20685;-53
2023/06/17 06:12:54;;;;;;;11.23;6.13;;;;;;;;;;5022086;28;20083;-57
2023/06/17 06:15:19;;;;;;;7.40;6.28;;;;;;;;;;5023586;28;20765;-56
2023/06/17 06:17:45;;;;;;;10.00;7.10;;;;;;;;;;5022656;28;20037;-58
2023/06/17 06:20:10;;;;;;;16.30;7.43;;;;;;;;;;5023693;28;20033;-59
2023/06/17 06:22:35;;;;;;;11.80;7.00;;;;;;;;;;5023255;28;20366;-57
2023/06/17 06:25:00;;;;;;;10.03;7.60;;;;;;;;;;5022877;28;20310;-58
2023/06/17 06:27:26;;;;;;;11.30;6.90;;;;;;;;;;5023716;28;20297;-56
2023/06/17 06:29:51;;;;;;;10.57;7.50;;;;;;;;;;5023056;28;20265;-59
2023/06/17 06:32:16;;;;;;;12.90;7.90;;;;;;;;;;5037399;28;21156;-58
2023/06/17 06:34:42;;;;;;;10.73;7.87;;;;;;;;;;5023625;28;20727;-55
2023/06/17 06:37:07;;;;;;;9.63;7.10;;;;;;;;;;5029349;28;20352;-57
2023/06/17 06:39:34;;;;;;;10.68;5.75;;;;;;;;;;5023164;28;20288;-58
2023/06/17 06:41:59;;;;;;;12.13;7.50;;;;;;;;;;5022749;28;20064;-56
2023/06/17 06:44:25;;;;;;;13.32;7.40;;;;;;;;;;5022445;28;20033;-57
2023/06/17 06:46:50;;;;;;;9.90;6.73;;;;;;;;;;5023292;28;20037;-57
2023/06/17 06:49:15;;;;;;;10.05;6.80;;;;;;;;;;5022649;28;20369;-55
2023/06/17 06:51:40;;;;;;;11.57;6.57;;;;;;;;;;5027939;28;20091;-53
2023/06/17 06:54:06;;;;;;;7.27;5.97;;;;;;;;;;5022836;28;20704;-58
2023/06/17 06:56:31;;;;;;;9.20;6.13;;;;;;;;;;5024335;28;20346;-58
2023/06/17 06:58:56;;;;;;;7.30;5.90;;;;;;;;;;5021936;28;20376;-54
2023/06/17 07:01:22;;;;;;;8.07;6.43;;;;;;;;;;5040824;28;20044;-57
2023/06/17 07:03:47;;;;;;;11.93;6.18;;;;;;;;;;5022635;28;20785;-54
2023/06/17 07:06:13;;;;;;;10.03;6.00;;;;;;;;;;5022065;28;20061;-58
2023/06/17 07:08:38;;;;;;;10.90;6.87;;;;;;;;;;5021444;28;20424;-59
2023/06/17 07:11:03;;;;;;;12.13;5.87;;;;;;;;;;5022514;28;20342;-59
2023/06/17 07:13:28;;;;;;;11.67;6.90;;;;;;;;;;5026594;27;20298;-58
2023/06/17 07:15:54;;;;;;;9.50;6.50;;;;;;;;;;5022519;28;20785;-56
2023/06/17 07:18:19;;;;;;;10.15;6.03;;;;;;;;;;5021697;28;21805;-58
2023/06/17 07:20:45;;;;;;;11.45;6.65;;;;;;;;;;5023762;28;20728;-56
2023/06/17 07:23:10;;;;;;;10.13;6.57;;;;;;;;;;5021653;28;20039;-57
2023/06/17 07:25:36;;;;;;;9.57;5.80;;;;;;;;;;5021975;28;20273;-57
2023/06/17 07:28:02;;;;;;;12.40;6.22;;;;;;;;;;5021033;28;20363;-57
2023/06/17 07:30:28;;;;;;;9.05;6.70;;;;;;;;;;5021419;28;20158;-57
2023/06/17 07:32:53;;;;;;;12.13;6.90;;;;;;;;;;5021726;28;20500;-55
2023/06/17 07:35:19;;;;;;;8.57;6.25;;;;;;;;;;5027654;28;20021;-58
2023/06/17 07:37:44;;;;;;;8.75;5.97;;;;;;;;;;5022454;28;20457;-54
2023/06/17 07:40:11;;;;;;;8.52;5.50;;;;;;;;;;5022494;28;20280;-59
2023/06/17 07:42:37;;;;;;;12.15;6.90;;;;;;;;;;5022473;28;20472;-53
2023/06/17 07:45:03;;;;;;;8.40;5.80;;;;;;;;;;5024163;28;20021;-57
2023/06/17 07:47:29;;;;;;;7.60;5.88;;;;;;;;;;5021376;28;20048;-57
2023/06/17 07:49:55;;;;;;;7.18;5.47;;;;;;;;;;5022333;28;20033;-58
2023/06/17 07:52:20;;;;;;;14.10;6.97;;;;;;;;;;5025190;28;20435;-58
2023/06/17 07:54:47;;;;;;;10.35;6.05;;;;;;;;;;5022702;28;20108;-54
2023/06/17 07:57:13;;;;;;;6.93;6.13;;;;;;;;;;5020648;28;20064;-55
2023/06/17 07:59:40;;;;;;;10.93;6.50;;;;;;;;;;5021273;28;20109;-59
2023/06/17 08:02:06;;;;;;;10.23;5.93;;;;;;;;;;5023591;28;20331;-56
2023/06/17 08:04:31;;;;;;;9.02;5.50;;;;;;;;;;5050878;28;20029;-54
2023/06/17 08:06:56;;;;;;;7.60;6.00;;;;;;;;;;5022459;28;20025;-55
2023/06/17 08:09:22;;;;;;;10.20;6.40;;;;;;;;;;5020960;28;20582;-59
2023/06/17 08:11:47;;;;;;;8.40;6.10;;;;;;;;;;5020993;28;20266;-59
2023/06/17 08:14:13;;;;;;;8.88;6.25;;;;;;;;;;5020978;28;20633;-58
2023/06/17 08:16:38;;;;;;;8.65;6.75;;;;;;;;;;5021363;28;20038;-59
2023/06/17 08:19:03;;;;;;;8.60;6.53;;;;;;;;;;5020680;28;20033;-56
2023/06/17 08:21:29;;;;;;;9.50;6.35;;;;;;;;;;5021934;28;20322;-54
2023/06/17 08:23:54;;;;;;;12.23;7.00;;;;;;;;;;5020253;28;20033;-58
2023/06/17 08:26:19;;;;;;;8.37;6.40;;;;;;;;;;5022307;28;20041;-57
2023/06/17 08:28:45;;;;;;;8.15;6.22;;;;;;;;;;5020851;28;20021;-56
2023/06/17 08:31:11;;;;;;;11.32;6.32;;;;;;;;;;5021785;28;20041;-57
2023/06/17 08:33:37;;;;;;;8.70;7.18;;;;;;;;;;5020125;28;20043;-57
2023/06/17 08:36:02;;;;;;;10.05;6.63;;;;;;;;;;5020337;28;20025;-57
2023/06/17 08:38:27;;;;;;;8.75;6.45;;;;;;;;;;5026367;28;20680;-52
2023/06/17 08:40:52;;;;;;;11.07;5.90;;;;;;;;;;5020901;28;21834;-56
2023/06/17 08:43:20;;;;;;;8.60;5.83;;;;;;;;;;5020833;28;20296;-57
2023/06/17 08:45:51;;;;;;;9.57;6.43;;;;;;;;;;5020967;28;20175;-57
2023/06/17 08:48:16;;;;;;;11.93;5.88;;;;;;;;;;5020826;28;20392;-58
2023/06/17 08:50:42;;;;;;;12.38;6.10;;;;;;;;;;5025548;28;20138;-56
2023/06/17 08:53:09;;;;;;;9.65;5.93;;;;;;;;;;5020057;28;20412;-59
2023/06/17 08:55:34;;;;;;;14.38;6.88;;;;;;;;;;5020416;28;20043;-59
2023/06/17 08:58:00;;;;;;;7.97;6.32;;;;;;;;;;5037950;28;20037;-56
2023/06/17 09:00:25;;;;;;;12.35;6.75;;;;;;;;;;5019914;28;20034;-58
2023/06/17 09:02:51;;;;;;;9.93;5.85;;;;;;;;;;5023202;28;20029;-56
2023/06/17 09:05:16;;;;;;;9.50;6.63;;;;;;;;;;5020121;28;20460;-56
2023/06/17 09:07:42;;;;;;;10.00;6.57;;;;;;;;;;5020053;28;20033;-59
2023/06/17 09:10:09;;;;;;;8.85;5.78;;;;;;;;;;5020093;28;20270;-55
2023/06/17 09:12:40;;;;;;;7.15;5.50;;;;;;;;;;5020323;28;20037;-56
2023/06/17 09:15:15;;;;;;;9.23;5.75;;;;;;;;;;5020331;28;20173;-55
2023/06/17 09:17:41;;;;;;;6.70;5.18;;;;;;;;;;5019441;28;20126;-58
2023/06/17 09:20:11;;;;;;;8.63;5.45;;;;;;;;;;5020582;28;20032;-56
2023/06/17 09:22:43;;;;;;;8.05;5.82;;;;;;;;;;5019620;28;20029;-58
2023/06/17 09:25:13;;;;;;;7.88;5.65;;;;;;;;;;5020960;28;20036;-57
2023/06/17 09:27:52;;;;;;;10.48;6.05;;;;;;;;;;5019816;28;20035;-55
2023/06/17 09:30:20;;;;;;;8.02;5.55;;;;;;;;;;5021071;28;20033;-56
2023/06/17 09:32:49;;;;;;;7.03;5.20;;;;;;;;;;5019930;28;20589;-57
2023/06/17 09:35:15;;;;;;;9.35;5.55;;;;;;;;;;5022390;28;20118;-59
2023/06/17 09:37:44;;;;;;;6.00;5.30;;;;;;;;;;5024369;28;20358;-57
2023/06/17 09:40:10;;;;;;;11.77;5.38;;;;;;;;;;5021787;28;20029;-53
2023/06/17 09:42:35;;;;;;;7.85;5.38;;;;;;;;;;5022131;28;20454;-56
2023/06/17 09:45:06;;;;;;;7.13;5.95;;;;;;;;;;5021889;28;20033;-56
2023/06/17 09:47:32;;;;;;;8.68;5.28;;;;;;;;;;5024781;28;20036;-60
2023/06/17 09:50:01;;;;;;;8.35;5.32;;;;;;;;;;5028217;28;20033;-56
2023/06/17 09:52:28;;;;;;;10.18;5.85;;;;;;;;;;5023078;28;20057;-56
2023/06/17 09:54:54;;;;;;;9.30;5.55;;;;;;;;;;5023533;28;20652;-58
2023/06/17 09:57:20;;;;;;;5.47;4.78;;;;;;;;;;5023556;28;20029;-57
2023/06/17 09:59:47;;;;;;;8.27;5.00;;;;;;;;;;5023901;28;20033;-57
2023/06/17 10:02:12;;;;;;;7.13;5.00;;;;;;;;;;5023479;28;20086;-58
2023/06/17 10:04:37;;;;;;;8.57;5.10;;;;;;;;;;5024129;28;20028;-59
2023/06/17 10:07:03;;;;;;;7.60;5.40;;;;;;;;;;5024126;28;20744;-52
2023/06/17 10:09:29;;;;;;;7.05;5.13;;;;;;;;;;5022912;28;20034;-53
2023/06/17 10:11:55;;;;;;;6.10;5.20;;;;;;;;;;5023144;28;20515;-57
2023/06/17 10:14:25;;;;;;;10.13;5.15;;;;;;;;;;5022542;28;20137;-56
2023/06/17 10:16:51;;;;;;;10.05;6.18;;;;;;;;;;5023556;28;20029;-55
2023/06/17 10:19:17;;;;;;;8.48;4.75;;;;;;;;;;5023416;28;20647;-58
2023/06/17 10:21:45;;;;;;;8.48;4.40;;;;;;;;;;5023575;28;20036;-58
2023/06/17 10:24:11;;;;;;;5.90;4.97;;;;;;;;;;5023055;28;20029;-57
2023/06/17 10:26:38;;;;;;;7.10;4.85;;;;;;;;;;5024543;28;20543;-58
2023/06/17 10:29:07;;;;;;;10.43;5.20;;;;;;;;;;5022534;28;20401;-58
2023/06/17 10:31:37;;;;;;;6.15;4.72;;;;;;;;;;5023916;28;20112;-56
2023/06/17 10:34:03;;;;;;;8.75;4.93;;;;;;;;;;5023326;28;20024;-58
2023/06/17 10:36:29;;;;;;;6.28;4.50;;;;;;;;;;5029231;28;20089;-54
2023/06/17 10:38:55;;;;;;;7.90;5.07;;;;;;;;;;5021857;28;20113;-57
2023/06/17 10:41:21;;;;;;;7.45;4.65;;;;;;;;;;5027203;28;20560;-54
2023/06/17 10:43:49;;;;;;;8.75;4.47;;;;;;;;;;5023069;28;21733;-58
2023/06/17 10:46:22;;;;;;;5.20;4.70;;;;;;;;;;5022353;28;20546;-56
2023/06/17 10:48:47;;;;;;;4.78;4.05;;;;;;;;;;5021953;28;20083;-58
2023/06/17 10:51:12;;;;;;;7.17;4.30;;;;;;;;;;5023089;28;20500;-58
2023/06/17 10:53:45;;;;;;;7.10;4.17;;;;;;;;;;5021570;28;20337;-56
2023/06/17 10:56:10;;;;;;;4.55;3.65;;;;;;;;;;5022292;28;20065;-53
2023/06/17 10:58:46;;;;;;;5.90;3.67;;;;;;;;;;5021307;28;20128;-57
2023/06/17 11:01:11;;;;;;;7.28;3.88;;;;;;;;;;5022665;28;20093;-53
2023/06/17 11:03:37;;;;;;;5.10;4.10;;;;;;;;;;5022135;28;20025;-56
2023/06/17 11:06:03;;;;;;;5.05;3.83;;;;;;;;;;5024756;28;20262;-55
2023/06/17 11:08:30;;;;;;;6.30;3.92;;;;;;;;;;5022191;28;20032;-54
2023/06/17 11:11:14;;;;;;;7.68;4.10;;;;;;;;;;5022532;28;20401;-59
2023/06/17 11:13:40;;;;;;;6.63;4.57;;;;;;;;;;5021564;28;20586;-53
2023/06/17 11:16:06;;;;;;;8.27;4.70;;;;;;;;;;5022541;28;20174;-54
2023/06/17 11:18:34;;;;;;;5.88;3.80;;;;;;;;;;5021797;28;20057;-55
2023/06/17 11:20:59;;;;;;;8.05;3.25;;;;;;;;;;5023103;28;20026;-59
2023/06/17 11:23:26;;;;;;;8.25;4.18;;;;;;;;;;5026261;28;20025;-58
2023/06/17 11:25:52;;;;;;;4.97;3.88;;;;;;;;;;5022683;28;20108;-56
2023/06/17 11:28:19;;;;;;;4.53;3.53;;;;;;;;;;5021680;28;20496;-55
2023/06/17 11:30:44;;;;;;;5.25;3.80;;;;;;;;;;5021346;28;20037;-58
2023/06/17 11:33:10;;;;;;;6.60;3.67;;;;;;;;;;5022664;28;20037;-55
2023/06/17 11:35:36;;;;;;;4.90;3.58;;;;;;;;;;5027455;28;20104;-57
2023/06/17 11:38:02;;;;;;;5.68;4.07;;;;;;;;;;5021991;28;20045;-58
2023/06/17 11:40:27;;;;;;;4.90;3.95;;;;;;;;;;5021715;28;20032;-57
2023/06/17 11:42:52;;;;;;;6.40;3.85;;;;;;;;;;5025345;28;20045;-53
2023/06/17 11:45:19;;;;;;;4.70;3.83;;;;;;;;;;5020971;28;20740;-59
2023/06/17 11:47:44;;;;;;;6.80;3.83;;;;;;;;;;5020726;28;20278;-56
2023/06/17 11:50:10;;;;;;;7.38;3.90;;;;;;;;;;5022543;28;20029;-57
2023/06/17 11:52:35;;;;;;;3.90;3.45;;;;;;;;;;5027820;28;20041;-59
2023/06/17 11:55:01;;;;;;;5.03;4.00;;;;;;;;;;5022214;28;20604;-61
2023/06/17 11:57:27;;;;;;;4.80;3.83;;;;;;;;;;5020877;28;20387;-52
2023/06/17 11:59:57;;;;;;;5.18;3.85;;;;;;;;;;5021609;28;20124;-58
2023/06/17 12:02:25;;;;;;;4.75;3.60;;;;;;;;;;5021139;28;20656;-57
2023/06/17 12:04:50;;;;;;;4.47;3.70;;;;;;;;;;5039886;28;20432;-53
2023/06/17 12:07:16;;;;;;;5.00;3.27;;;;;;;;;;5020476;28;20029;-53
2023/06/17 12:09:51;;;;;;;6.10;3.77;;;;;;;;;;5020627;28;20078;-54
2023/06/17 12:12:29;;;;;;;4.70;3.55;;;;;;;;;;5020749;28;20269;-59
2023/06/17 12:15:03;;;;;;;3.90;3.20;;;;;;;;;;5020967;28;20025;-56
2023/06/17 12:17:35;;;;;;;4.68;3.72;;;;;;;;;;5055595;28;20127;-54
2023/06/17 12:20:00;;;;;;;4.75;3.80;;;;;;;;;;5020263;28;20031;-53
2023/06/17 12:22:26;;;;;;;4.60;3.70;;;;;;;;;;5021018;28;20037;-58
2023/06/17 12:24:51;;;;;;;4.63;3.73;;;;;;;;;;5021523;28;20025;-57
2023/06/17 12:27:16;;;;;;;5.10;3.40;;;;;;;;;;5020869;28;20689;-52
2023/06/17 12:29:44;;;;;;;5.23;3.63;;;;;;;;;;5021493;28;20266;-58
2023/06/17 12:32:09;;;;;;;5.95;3.53;;;;;;;;;;5019538;28;20362;-59
2023/06/17 12:34:34;;;;;;;4.55;3.92;;;;;;;;;;5021079;28;20044;-58
2023/06/17 12:37:00;;;;;;;8.17;3.57;;;;;;;;;;5024048;28;20029;-58
2023/06/17 12:39:26;;;;;;;5.20;4.00;;;;;;;;;;5024237;28;20028;-59
2023/06/17 12:41:51;;;;;;;5.00;3.80;;;;;;;;;;5025457;28;20461;-59
2023/06/17 12:44:17;;;;;;;6.47;4.50;;;;;;;;;;5020598;28;20400;-55
2023/06/17 12:46:44;;;;;;;4.82;3.80;;;;;;;;;;5023002;28;20272;-56
2023/06/17 12:49:10;;;;;;;5.20;3.80;;;;;;;;;;5020425;28;20029;-58
2023/06/17 12:51:36;;;;;;;4.55;3.17;;;;;;;;;;5020878;28;20057;-53
2023/06/17 12:54:01;;;;;;;4.88;3.85;;;;;;;;;;5020480;28;20048;-57
2023/06/17 12:56:26;;;;;;;4.63;3.20;;;;;;;;;;5021305;28;20033;-57
2023/06/17 12:58:51;;;;;;;7.87;3.70;;;;;;;;;;5020297;28;20265;-56
2023/06/17 13:01:17;;;;;;;6.63;3.63;;;;;;;;;;5020740;28;22807;-56
2023/06/17 13:03:42;;;;;;;5.47;3.80;;;;;;;;;;5020314;28;20041;-58
2023/06/17 13:06:07;;;;;;;4.80;4.10;;;;;;;;;;5020387;28;20749;-58
2023/06/17 13:08:33;;;;;;;4.82;3.70;;;;;;;;;;5021634;28;20265;-57
2023/06/17 13:10:59;;;;;;;7.30;3.90;;;;;;;;;;5020095;28;20031;-56
2023/06/17 13:13:26;;;;;;;6.40;4.10;;;;;;;;;;5020116;28;20080;-59
2023/06/17 13:15:52;;;;;;;5.95;3.00;;;;;;;;;;5020239;28;20320;-53
2023/06/17 13:18:17;;;;;;;5.72;3.63;;;;;;;;;;5020108;28;20037;-59
2023/06/17 13:20:43;;;;;;;4.45;3.33;;;;;;;;;;5021691;28;20021;-57
2023/06/17 13:23:08;;;;;;;7.25;4.25;;;;;;;;;;5024121;28;20035;-58
2023/06/17 13:25:33;;;;;;;4.70;3.05;;;;;;;;;;5029445;28;20021;-55
2023/06/17 13:27:59;;;;;;;5.07;3.53;;;;;;;;;;5024685;28;20017;-58
2023/06/17 13:30:24;;;;;;;8.60;3.22;;;;;;;;;;5020610;28;20548;-52
2023/06/17 13:32:50;;;;;;;5.33;3.17;;;;;;;;;;5023818;28;20248;-56
2023/06/17 13:35:15;;;;;;;7.10;3.27;;;;;;;;;;5024810;28;20313;-56
2023/06/17 13:37:40;;;;;;;7.80;3.78;;;;;;;;;;5028210;28;20717;-58
2023/06/17 13:40:06;;;;;;;5.00;3.15;;;;;;;;;;5026435;28;20775;-56
2023/06/17 13:42:32;;;;;;;8.20;4.30;;;;;;;;;;5027618;28;20476;-58
2023/06/17 13:44:59;;;;;;;5.57;3.28;;;;;;;;;;5023542;28;20276;-58
2023/06/17 13:47:24;;;;;;;4.43;3.25;;;;;;;;;;5024175;28;20025;-58
2023/06/17 13:49:49;;;;;;;6.75;3.63;;;;;;;;;;5027473;28;20031;-59
2023/06/17 13:52:16;;;;;;;4.82;3.28;;;;;;;;;;5022741;28;20308;-57
2023/06/17 13:54:41;;;;;;;6.15;3.80;;;;;;;;;;5023706;28;20061;-58
2023/06/17 13:57:06;;;;;;;6.03;3.30;;;;;;;;;;5023343;28;20020;-59
2023/06/17 13:59:32;;;;;;;6.07;3.33;;;;;;;;;;5023182;28;20737;-58
2023/06/17 14:01:57;;;;;;;6.68;3.40;;;;;;;;;;5024997;28;20025;-57
2023/06/17 14:04:23;;;;;;;8.80;3.65;;;;;;;;;;5023333;28;20507;-56
2023/06/17 14:06:49;;;;;;;5.10;3.13;;;;;;;;;;5023329;28;20052;-54
2023/06/17 14:09:14;;;;;;;4.70;3.80;;;;;;;;;;5022974;28;20116;-57
2023/06/17 14:11:40;;;;;;;5.20;2.87;;;;;;;;;;5023605;28;20028;-56
2023/06/17 14:14:05;;;;;;;6.57;3.20;;;;;;;;;;5023572;28;20815;-58
2023/06/17 14:16:31;;;;;;;5.40;3.15;;;;;;;;;;5023328;28;20112;-58
2023/06/17 14:18:57;;;;;;;4.78;2.92;;;;;;;;;;5041621;28;20134;-57
2023/06/17 14:21:27;;;;;;;3.15;2.80;;;;;;;;;;5024364;28;20456;-57
2023/06/17 14:23:56;;;;;;;2.97;2.67;;;;;;;;;;5023474;28;20034;-59
2023/06/17 14:26:21;;;;;;;5.57;2.92;;;;;;;;;;5023206;28;20053;-58
2023/06/17 14:28:46;;;;;;;4.73;2.80;;;;;;;;;;5022484;28;20112;-57